Detalii statie AGRIND TASNAD [0000197A]

Toti senzorii

Date Temperatura solului [C]Precipitatii [mm]Voltaj baterie [mV]Leaf Wetness [Min]HC Air temperature [C]HC Relative humidity [%]Punctul de roua [C]
medieminmaxsumaultimatimpmedieminmaxmediemediemin
2019-02-21 01:00:00 3.5 3.5 3.6 0 6932 0.27 0.19 0.36 100 0.2 0.1
2019-02-21 01:10:00 3.5 3.5 3.5 0 6894 0.27 0.2 0.35 100 0.2 0.2
2019-02-21 01:20:00 3.4 3.4 3.4 0 6914 0.29 0.24 0.35 100 0.2 0.2
2019-02-21 01:30:00 3.3 3.3 3.4 0 6914 0.3 0.3 0.3 100 0.3 0.3
2019-02-21 01:40:00 3.3 3.2 3.4 0 6922 0.95 0.6 1.3 100 0.9 0.6
2019-02-21 01:50:00 3.2 3.2 3.3 0 6922 1.38 1.24 1.52 100 1.3 1.2
2019-02-21 02:00:00 3.2 3.1 3.3 0 6922 1.24 1.16 1.33 100 1.2 1.1
2019-02-21 02:10:00 3.3 3.3 3.3 0 6884 1.45 1.43 1.47 100 1.4 1.4
2019-02-21 02:20:00 3.2 3.2 3.2 0 6904 1.38 1.37 1.4 100 1.3 1.3
2019-02-21 02:30:00 3.1 3.1 3.1 0 6914 1.93 1.8 2.07 100 1.9 1.8
2019-02-21 02:40:00 3.1 3.1 3.2 0 6914 1.67 1.6 1.75 100 1.6 1.6
2019-02-21 02:50:00 3.2 3.2 3.2 0 6922 1.76 1.74 1.78 100 1.7 1.7
2019-02-21 03:00:00 3.1 3.1 3.2 0 6914 1.78 1.78 1.79 100 1.7 1.7
2019-02-21 03:10:00 3.1 3.1 3.1 0 6884 1.68 1.68 1.68 100 1.6 1.6
2019-02-21 03:20:00 3.2 3.2 3.2 0 6904 1.69 1.68 1.71 100 1.6 1.6
2019-02-21 03:30:00 3.2 3.2 3.2 0 6904 1.53 1.46 1.61 100 1.5 1.4
2019-02-21 03:40:00 3.1 3 3.2 0 6904 1.26 1.22 1.3 100 1.2 1.2
2019-02-21 03:50:00 3 3 3.1 0 6922 1.34 1.33 1.35 100 1.3 1.3
2019-02-21 04:00:00 3.1 3.1 3.1 0 6914 1.42 1.4 1.44 100 1.4 1.4
2019-02-21 04:10:00 3 2.9 3.1 0 6884 1.35 1.25 1.45 100 1.3 1.2
2019-02-21 04:20:00 3.1 3.1 3.1 0 6904 0.95 0.88 1.02 100 0.9 0.8
2019-02-21 04:30:00 3 3 3.1 0 6904 1.02 0.94 1.1 100 1 0.9
2019-02-21 04:40:00 2.9 2.9 3 0 6914 1.05 1.03 1.08 99.91 0.9 0.9
2019-02-21 04:50:00 3 2.9 3.2 0 6914 1 0.88 1.12 98.7 0.6 0.5
2019-02-21 05:00:00 2.9 2.9 3 0 6922 0.35 0.09 0.62 99.75 0.2 0
2019-02-21 05:10:00 2.8 2.8 2.9 0 6874 0.05 0.05 0.06 100 0 0
2019-02-21 05:20:00 2.8 2.8 2.8 0 6894 0.15 0.12 0.18 100 0.1 0.1
2019-02-21 05:30:00 2.8 2.8 2.9 0 6904 0.22 0.11 0.34 100 0.2 0.1
2019-02-21 05:40:00 2.8 2.8 2.8 0 6904 0.64 0.58 0.71 99.95 0.5 0.5
2019-02-21 05:50:00 2.8 2.8 2.8 0 6914 0.75 0.7 0.81 98.98 0.5 0.5
2019-02-21 06:00:00 2.7 2.7 2.7 0 6904 0.92 0.89 0.95 96.69 0.2 0.2
2019-02-21 06:10:00 2.8 2.8 2.8 0 6874 0.72 0.69 0.75 97.41 0.2 0.2
2019-02-21 06:20:00 2.7 2.7 2.8 0 6894 0.54 0.54 0.55 99.15 0.4 0.4
2019-02-21 06:30:00 2.5 2.5 2.5 0 6894 0.81 0.81 0.82 98.5 0.5 0.4
2019-02-21 06:40:00 2.7 2.7 2.8 0 6904 0.65 0.61 0.7 99.33 0.4 0.3
2019-02-21 06:50:00 2.6 2.6 2.6 0 6904 0.88 0.78 0.98 99.17 0.7 0.6
2019-02-21 07:00:00 2.5 2.5 2.6 0 6914 1.14 1.05 1.24 98.06 0.7 0.7
2019-02-21 07:10:00 2.6 2.6 2.7 0 6874 1.45 1.42 1.48 96.27 0.8 0.8
2019-02-21 07:20:00 2.5 2.5 2.6 0 6894 1.49 1.49 1.5 97.23 1 1
2019-02-21 07:30:00 2.6 2.6 2.7 0 6894 1.45 1.43 1.47 97.78 1 1
2019-02-21 07:40:00 2.4 2.4 2.5 0 6904 1.48 1.44 1.52 98.06 1.1 1.1
2019-02-21 07:50:00 2.6 2.5 2.7 0 6904 1.55 1.47 1.64 98.97 1.3 1.3
2019-02-21 08:00:00 2.5 2.5 2.5 0 6904 1.77 1.72 1.82 98.4 1.4 1.4
2019-02-21 08:10:00 2.4 2.4 2.5 0 6874 2.04 1.96 2.13 96.54 1.4 1.4
2019-02-21 08:20:00 2.4 2.3 2.5 0 6894 2.4 2.32 2.49 93.6 1.4 1.4
2019-02-21 08:30:00 2.5 2.5 2.5 0 6894 2.58 2.55 2.61 93.32 1.4 1.4
2019-02-21 08:40:00 2.5 2.5 2.5 0 6914 2.77 2.67 2.87 94.33 1.8 1.7
2019-02-21 08:50:00 2.4 2.4 2.5 0 6932 3.17 3.11 3.24 93.61 2.1 2.1